Time;durP1;ratioP1;P1;durP2;ratioP2;P2;SDS_P1;SDS_P2;PMS_P1;PMS_P2;Temp;Humidity;BMP_temperature;BMP_pressure;BME280_temperature;BME280_humidity;BME280_pressure;Samples;Min_cycle;Max_cycle;Signal;HPM_P1;HPM_P2
2022/01/12 00:00:48;;;;;;;;;;;9.60;99.90;;;;;;4955426;29;19917;-78
2022/01/12 00:03:13;;;;;;;;;;;9.60;99.90;;;;;;4938256;29;20018;-78
2022/01/12 00:05:39;;;;;;;;;;;9.60;99.90;;;;;;4938245;29;19910;-78
2022/01/12 00:08:05;;;;;;;;;;;9.60;99.90;;;;;;4955365;29;20311;-78
2022/01/12 00:10:30;;;;;;;;;;;9.70;99.90;;;;;;4938128;29;19917;-78
2022/01/12 00:12:56;;;;;;;;;;;9.70;99.90;;;;;;4955370;29;20283;-78
2022/01/12 00:15:22;;;;;;;;;;;9.70;99.90;;;;;;4955332;29;19921;-78
2022/01/12 00:17:47;;;;;;;;;;;9.60;99.90;;;;;;4955902;29;19938;-79
2022/01/12 00:20:13;;;;;;;;;;;9.50;99.90;;;;;;4955314;29;19917;-79
2022/01/12 00:22:40;;;;;;;;;;;9.40;99.90;;;;;;4938008;29;19958;-79
2022/01/12 00:25:25;;;;;;;;;;;9.50;99.90;;;;;;4955137;29;19961;-78
2022/01/12 00:33:21;;;;;;;;;;;9.60;99.90;;;;;;4954950;29;19961;-78
2022/01/12 00:35:50;;;;;;;;;;;9.60;99.90;;;;;;4956408;28;19953;-79
2022/01/12 00:38:17;;;;;;;;;;;9.60;99.90;;;;;;4958847;29;19911;-79
2022/01/12 00:40:44;;;;;;;;;;;9.60;99.90;;;;;;4941571;29;19922;-78
2022/01/12 00:43:10;;;;;;;;;;;9.60;99.90;;;;;;4958924;29;19926;-79
2022/01/12 00:45:45;;;;;;;;;;;9.50;99.90;;;;;;4941493;29;19911;-79
2022/01/12 00:48:10;;;;;;;;;;;9.50;99.90;;;;;;4958908;29;19921;-79
2022/01/12 00:50:36;;;;;;;;;;;9.50;99.90;;;;;;4958928;29;19911;-78
2022/01/12 00:53:03;;;;;;;;;;;9.50;99.90;;;;;;4957131;29;19937;-78
2022/01/12 00:55:30;;;;;;;;;;;9.50;99.90;;;;;;4958782;29;19915;-79
2022/01/12 00:57:58;;;;;;;;;;;9.50;99.90;;;;;;4958469;29;20389;-79
2022/01/12 01:00:24;;;;;;;;;;;9.50;99.90;;;;;;4958508;29;19942;-79
2022/01/12 01:02:49;;;;;;;;;;;9.50;99.90;;;;;;4958485;29;19917;-79
2022/01/12 01:05:19;;;;;;;;;;;9.50;99.90;;;;;;4958448;29;19910;-78
2022/01/12 01:07:45;;;;;;;;;;;9.40;99.90;;;;;;4958676;29;19921;-79
2022/01/12 01:10:14;;;;;;;;;;;9.40;99.90;;;;;;4958321;29;19910;-79
2022/01/12 01:12:40;;;;;;;;;;;9.30;99.90;;;;;;4958483;29;19910;-79
2022/01/12 01:15:09;;;;;;;;;;;9.20;99.90;;;;;;4958235;29;19993;-78
2022/01/12 01:25:43;;;;;;;;;;;9.30;99.90;;;;;;4958233;29;19948;-78
2022/01/12 01:28:09;;;;;;;;;;;9.20;99.90;;;;;;4958009;29;19915;-79
2022/01/12 01:30:36;;;;;;;;;;;9.30;99.90;;;;;;4958030;29;19993;-79
2022/01/12 01:33:07;;;;;;;;;;;9.30;99.90;;;;;;4957839;29;19914;-78
2022/01/12 01:35:34;;;;;;;;;;;9.10;99.90;;;;;;4958170;29;19918;-78
2022/01/12 01:38:01;;;;;;;;;;;9.00;99.90;;;;;;4956889;29;19914;-79
2022/01/12 01:40:28;;;;;;;;;;;9.00;99.90;;;;;;4956460;29;20001;-78
2022/01/12 01:53:37;;;;;;;;;;;9.10;99.90;;;;;;4957198;28;19970;-78
2022/01/12 01:56:03;;;;;;;;;;;9.20;99.90;;;;;;4957644;29;19914;-79
2022/01/12 01:58:29;;;;;;;;;;;9.20;99.90;;;;;;4957478;29;19954;-78
2022/01/12 02:00:57;;;;;;;;;;;9.20;99.90;;;;;;4957623;29;19910;-79
2022/01/12 02:03:29;;;;;;;;;;;9.20;99.90;;;;;;4940108;29;19918;-78
2022/01/12 02:05:55;;;;;;;;;;;9.20;99.90;;;;;;4941375;29;20377;-78
2022/01/12 02:08:21;;;;;;;;;;;9.20;99.90;;;;;;4957660;29;20013;-79
2022/01/12 02:10:52;;;;;;;;;;;9.20;99.90;;;;;;4957389;29;20343;-79
2022/01/12 02:13:18;;;;;;;;;;;9.10;99.90;;;;;;4957281;29;20009;-79
2022/01/12 02:15:45;;;;;;;;;;;9.20;99.90;;;;;;4957173;29;19997;-78
2022/01/12 02:18:30;;;;;;;;;;;9.20;99.90;;;;;;4956367;29;19934;-78
2022/01/12 02:35:22;;;;;;;;;;;9.40;99.90;;;;;;4957165;29;19918;-78
2022/01/12 02:40:31;;;;;;;;;;;9.30;99.90;;;;;;4956384;29;19910;-79
2022/01/12 02:43:13;;;;;;;;;;;9.30;99.90;;;;;;4956648;29;19911;-79
2022/01/12 02:53:43;;;;;;;;;;;9.30;99.90;;;;;;4956376;29;20042;-78
2022/01/12 02:56:19;;;;;;;;;;;9.40;99.90;;;;;;4956609;29;19910;-79
2022/01/12 02:58:46;;;;;;;;;;;9.40;99.90;;;;;;4955834;28;19911;-78
2022/01/12 03:01:41;;;;;;;;;;;9.50;99.90;;;;;;4956296;29;19917;-78
2022/01/12 03:04:06;;;;;;;;;;;9.50;99.90;;;;;;4956034;28;19965;-78
2022/01/12 03:06:36;;;;;;;;;;;9.50;99.90;;;;;;4956216;29;20011;-78
2022/01/12 03:09:03;;;;;;;;;;;9.40;99.90;;;;;;4956167;29;19989;-78
2022/01/12 03:11:29;;;;;;;;;;;9.40;99.90;;;;;;4954822;29;20310;-79
2022/01/12 03:13:55;;;;;;;;;;;9.50;99.90;;;;;;4956285;29;20005;-79
2022/01/12 03:16:24;;;;;;;;;;;9.50;99.90;;;;;;4956129;29;19911;-79
2022/01/12 03:18:51;;;;;;;;;;;9.40;99.90;;;;;;4956704;29;19911;-79
2022/01/12 03:21:19;;;;;;;;;;;9.40;99.90;;;;;;4955948;29;20371;-78
2022/01/12 03:23:45;;;;;;;;;;;9.30;99.90;;;;;;4955909;29;19938;-79
2022/01/12 03:26:11;;;;;;;;;;;9.40;99.90;;;;;;4955971;29;19918;-78
2022/01/12 03:28:40;;;;;;;;;;;9.40;99.90;;;;;;4938608;29;19914;-78
2022/01/12 03:31:13;;;;;;;;;;;9.40;99.90;;;;;;4955774;29;19910;-78
2022/01/12 03:38:52;;;;;;;;;;;9.30;99.90;;;;;;4955513;29;20002;-78
2022/01/12 03:41:18;;;;;;;;;;;9.30;99.90;;;;;;4955672;29;19911;-78
2022/01/12 03:43:44;;;;;;;;;;;9.30;99.90;;;;;;4955617;29;19934;-78
2022/01/12 03:46:09;;;;;;;;;;;9.30;99.90;;;;;;4955488;29;20279;-78
2022/01/12 03:48:35;;;;;;;;;;;9.30;99.90;;;;;;4955549;29;19910;-79
2022/01/12 03:51:00;;;;;;;;;;;9.30;99.90;;;;;;4938291;29;19950;-78
2022/01/12 03:53:26;;;;;;;;;;;9.30;99.90;;;;;;4955737;29;20425;-78
2022/01/12 03:55:52;;;;;;;;;;;9.30;99.90;;;;;;4955851;29;19914;-78
2022/01/12 03:58:17;;;;;;;;;;;9.30;99.90;;;;;;4955522;29;19989;-78
2022/01/12 04:00:43;;;;;;;;;;;9.20;99.90;;;;;;4955610;29;19952;-78
2022/01/12 04:03:09;;;;;;;;;;;9.20;99.90;;;;;;4955458;29;19911;-78
2022/01/12 04:08:19;;;;;;;;;;;9.20;99.90;;;;;;4955312;29;19951;-78
2022/01/12 04:10:52;;;;;;;;;;;9.10;99.90;;;;;;4956758;28;19962;-78
2022/01/12 04:13:21;;;;;;;;;;;9.20;99.90;;;;;;4959370;29;19914;-78
2022/01/12 04:15:48;;;;;;;;;;;9.20;99.90;;;;;;4959647;29;19966;-78
2022/01/12 04:18:13;;;;;;;;;;;9.30;99.90;;;;;;4959761;29;19910;-78
2022/01/12 04:20:45;;;;;;;;;;;9.30;99.90;;;;;;4959203;29;19910;-78
2022/01/12 04:23:17;;;;;;;;;;;9.30;99.90;;;;;;4941738;29;19917;-78
2022/01/12 04:25:47;;;;;;;;;;;9.20;99.90;;;;;;4959287;29;20330;-78
2022/01/12 04:28:13;;;;;;;;;;;9.30;99.90;;;;;;4959012;29;19926;-78
2022/01/12 04:30:38;;;;;;;;;;;9.30;99.90;;;;;;4959007;29;19917;-78
2022/01/12 04:33:04;;;;;;;;;;;9.20;99.90;;;;;;4958991;29;19910;-78
2022/01/12 04:35:34;;;;;;;;;;;9.20;99.90;;;;;;4958941;29;20371;-79
2022/01/12 04:38:00;;;;;;;;;;;9.30;99.90;;;;;;4957444;29;20009;-78
2022/01/12 04:40:26;;;;;;;;;;;9.30;99.90;;;;;;4958821;29;20335;-78
2022/01/12 04:42:53;;;;;;;;;;;9.20;99.90;;;;;;4941584;29;19945;-78
2022/01/12 04:45:55;;;;;;;;;;;9.30;99.90;;;;;;4957505;29;19965;-78
2022/01/12 04:50:43;;;;;;;;;;;9.30;99.90;;;;;;4958816;29;19964;-79
2022/01/12 04:53:09;;;;;;;;;;;9.20;99.90;;;;;;4958579;29;19917;-78
2022/01/12 04:55:36;;;;;;;;;;;9.10;99.90;;;;;;4958849;29;19915;-78
2022/01/12 04:58:02;;;;;;;;;;;9.20;99.90;;;;;;4958596;29;19989;-78
2022/01/12 05:00:30;;;;;;;;;;;9.30;99.90;;;;;;4958446;29;19910;-78
2022/01/12 05:08:48;;;;;;;;;;;9.20;99.90;;;;;;4958128;29;20009;-78
2022/01/12 05:13:55;;;;;;;;;;;9.10;99.90;;;;;;4958037;29;20044;-79
2022/01/12 05:16:21;;;;;;;;;;;9.10;99.90;;;;;;4958249;29;19917;-78
2022/01/12 05:18:47;;;;;;;;;;;9.10;99.90;;;;;;4958682;29;19917;-78
2022/01/12 05:21:13;;;;;;;;;;;9.10;99.90;;;;;;4957673;28;19914;-78
2022/01/12 05:23:39;;;;;;;;;;;9.00;99.90;;;;;;4956865;29;19910;-78
2022/01/12 05:26:05;;;;;;;;;;;9.10;99.90;;;;;;4958114;29;20336;-79
2022/01/12 05:28:31;;;;;;;;;;;9.10;99.90;;;;;;4940761;29;19916;-78
2022/01/12 05:30:58;;;;;;;;;;;9.00;99.90;;;;;;4958460;29;19958;-78
2022/01/12 05:33:24;;;;;;;;;;;8.90;99.90;;;;;;4956626;29;19917;-78
2022/01/12 05:35:51;;;;;;;;;;;9.20;99.90;;;;;;4957890;29;19910;-79
2022/01/12 05:38:17;;;;;;;;;;;9.20;99.90;;;;;;4957823;29;20454;-79
2022/01/12 05:40:47;;;;;;;;;;;9.20;99.90;;;;;;4957741;29;19957;-78
2022/01/12 05:43:14;;;;;;;;;;;9.10;99.90;;;;;;4957886;29;20009;-78
2022/01/12 05:45:44;;;;;;;;;;;9.10;99.90;;;;;;4957703;29;19910;-78
2022/01/12 05:50:35;;;;;;;;;;;9.10;99.90;;;;;;4957923;29;19911;-79
2022/01/12 05:53:01;;;;;;;;;;;9.20;99.90;;;;;;4957690;29;19910;-78
2022/01/12 05:55:27;;;;;;;;;;;9.10;99.90;;;;;;4956143;29;20514;-79
2022/01/12 05:57:52;;;;;;;;;;;9.10;99.90;;;;;;4957582;29;19921;-78
2022/01/12 06:00:19;;;;;;;;;;;9.20;99.90;;;;;;4957429;29;19914;-78
2022/01/12 06:02:44;;;;;;;;;;;9.20;99.90;;;;;;4956110;29;20265;-78
2022/01/12 06:05:10;;;;;;;;;;;9.20;99.90;;;;;;4957410;29;19911;-79
2022/01/12 06:07:36;;;;;;;;;;;9.20;99.90;;;;;;4957223;29;19914;-78
2022/01/12 06:10:01;;;;;;;;;;;9.20;99.90;;;;;;4957308;28;19910;-78
2022/01/12 06:12:27;;;;;;;;;;;9.20;99.90;;;;;;4957239;29;19917;-78
2022/01/12 06:14:53;;;;;;;;;;;9.20;99.90;;;;;;4957454;29;20278;-78
2022/01/12 06:17:18;;;;;;;;;;;9.20;99.90;;;;;;4957085;29;19922;-78
2022/01/12 06:19:44;;;;;;;;;;;9.20;99.90;;;;;;4955814;29;20001;-78
2022/01/12 06:22:10;;;;;;;;;;;9.10;99.90;;;;;;4957065;29;19911;-79
2022/01/12 06:24:35;;;;;;;;;;;9.10;99.90;;;;;;4957163;29;19997;-79
2022/01/12 06:27:03;;;;;;;;;;;9.20;99.90;;;;;;4957169;29;19921;-78
2022/01/12 06:29:42;;;;;;;;;;;9.10;99.90;;;;;;4956906;29;20382;-78
2022/01/12 06:32:08;;;;;;;;;;;9.20;99.90;;;;;;4955343;29;20298;-78
2022/01/12 06:34:33;;;;;;;;;;;9.10;99.90;;;;;;4954675;28;19911;-78
2022/01/12 06:36:59;;;;;;;;;;;9.00;99.90;;;;;;4956774;29;19917;-78
2022/01/12 06:39:26;;;;;;;;;;;9.00;99.90;;;;;;4939469;29;19934;-78
2022/01/12 06:41:53;;;;;;;;;;;9.10;99.90;;;;;;4956694;29;19993;-79
2022/01/12 06:44:20;;;;;;;;;;;9.10;99.90;;;;;;4956772;29;19915;-78
2022/01/12 06:46:50;;;;;;;;;;;9.00;99.90;;;;;;4939312;29;19915;-78
2022/01/12 06:49:16;;;;;;;;;;;9.00;99.90;;;;;;4955227;29;19961;-78
2022/01/12 06:51:45;;;;;;;;;;;9.00;99.90;;;;;;4956356;29;19910;-78
2022/01/12 06:54:11;;;;;;;;;;;9.00;99.90;;;;;;4956343;29;20379;-78
2022/01/12 06:56:37;;;;;;;;;;;9.10;99.90;;;;;;4956584;29;20282;-78
2022/01/12 06:59:03;;;;;;;;;;;9.10;99.90;;;;;;4956316;29;19914;-78
2022/01/12 07:01:29;;;;;;;;;;;9.20;99.90;;;;;;4956953;29;20014;-78
2022/01/12 07:03:55;;;;;;;;;;;9.10;99.90;;;;;;4956651;29;19954;-78
2022/01/12 07:06:20;;;;;;;;;;;9.10;99.90;;;;;;4956304;29;19958;-78
2022/01/12 07:08:46;;;;;;;;;;;9.00;99.90;;;;;;4956290;29;19910;-79
2022/01/12 07:11:11;;;;;;;;;;;9.00;99.90;;;;;;4956203;29;19910;-78
2022/01/12 07:13:37;;;;;;;;;;;9.10;99.90;;;;;;4956631;29;20371;-78
2022/01/12 07:16:03;;;;;;;;;;;9.00;99.90;;;;;;4955809;29;19914;-78
2022/01/12 07:18:29;;;;;;;;;;;9.00;99.90;;;;;;4956117;29;19949;-78
2022/01/12 07:20:58;;;;;;;;;;;9.10;99.90;;;;;;4956049;29;20387;-78
2022/01/12 07:23:24;;;;;;;;;;;9.20;99.90;;;;;;4956029;29;19911;-78
2022/01/12 07:25:50;;;;;;;;;;;9.20;99.90;;;;;;4956005;29;19918;-78
2022/01/12 07:28:15;;;;;;;;;;;9.30;99.90;;;;;;4955907;29;20382;-78
2022/01/12 07:30:41;;;;;;;;;;;9.20;99.90;;;;;;4955922;29;19910;-78
2022/01/12 07:33:07;;;;;;;;;;;9.10;99.90;;;;;;4955964;29;19910;-78
2022/01/12 07:35:32;;;;;;;;;;;9.10;99.90;;;;;;4955756;29;20290;-78
2022/01/12 07:37:58;;;;;;;;;;;9.10;99.90;;;;;;4938518;29;19978;-78
2022/01/12 07:40:23;;;;;;;;;;;9.00;99.90;;;;;;4955665;29;19910;-78
2022/01/12 07:42:51;;;;;;;;;;;9.10;99.90;;;;;;4956040;29;20344;-78
2022/01/12 07:45:17;;;;;;;;;;;9.20;99.90;;;;;;4955620;28;19911;-78
2022/01/12 07:47:43;;;;;;;;;;;9.10;99.90;;;;;;4954312;29;20371;-78
2022/01/12 07:50:09;;;;;;;;;;;9.20;99.90;;;;;;4938271;29;20013;-78
2022/01/12 07:52:35;;;;;;;;;;;9.10;99.90;;;;;;4955819;29;19911;-78
2022/01/12 07:55:02;;;;;;;;;;;9.10;99.90;;;;;;4955326;29;20405;-78
2022/01/12 07:57:28;;;;;;;;;;;9.00;99.90;;;;;;4955563;29;19917;-78
2022/01/12 07:59:53;;;;;;;;;;;8.90;99.90;;;;;;4955582;29;19958;-78
2022/01/12 08:02:19;;;;;;;;;;;9.00;99.90;;;;;;4955444;29;19958;-78
2022/01/12 08:04:44;;;;;;;;;;;9.10;99.90;;;;;;4955377;29;20389;-78
2022/01/12 08:07:11;;;;;;;;;;;9.10;99.90;;;;;;4955334;29;19915;-78
2022/01/12 08:09:40;;;;;;;;;;;9.10;99.90;;;;;;4938196;29;19965;-78
2022/01/12 08:12:06;;;;;;;;;;;9.10;99.90;;;;;;4955410;29;19914;-78
2022/01/12 08:14:32;;;;;;;;;;;9.00;99.90;;;;;;4955752;29;19910;-78
2022/01/12 08:16:58;;;;;;;;;;;9.00;99.90;;;;;;4955488;29;20029;-78
2022/01/12 08:19:25;;;;;;;;;;;9.10;99.90;;;;;;4955178;29;19910;-79
2022/01/12 08:21:50;;;;;;;;;;;9.10;99.90;;;;;;4955307;29;19910;-78
2022/01/12 08:24:16;;;;;;;;;;;9.10;99.90;;;;;;4937956;29;19911;-79
2022/01/12 08:26:42;;;;;;;;;;;9.20;99.90;;;;;;4955327;29;19921;-79
2022/01/12 08:29:10;;;;;;;;;;;9.20;99.90;;;;;;4953822;29;19910;-78
2022/01/12 08:31:36;;;;;;;;;;;9.30;99.90;;;;;;4955516;29;19911;-78
2022/01/12 08:34:02;;;;;;;;;;;9.20;99.90;;;;;;4955171;29;20287;-78
2022/01/12 08:36:28;;;;;;;;;;;9.20;99.90;;;;;;4955115;29;20402;-78
2022/01/12 08:38:55;;;;;;;;;;;9.20;99.90;;;;;;4955323;29;19918;-78
2022/01/12 08:41:20;;;;;;;;;;;9.30;99.90;;;;;;4955126;29;19934;-78
2022/01/12 08:43:46;;;;;;;;;;;9.30;99.90;;;;;;4955230;29;20363;-78
2022/01/12 08:46:12;;;;;;;;;;;9.30;99.90;;;;;;4954929;29;19961;-78
2022/01/12 08:48:37;;;;;;;;;;;9.30;99.90;;;;;;4955216;29;19915;-78
2022/01/12 08:51:03;;;;;;;;;;;9.40;99.90;;;;;;4955048;29;19914;-78
2022/01/12 08:53:28;;;;;;;;;;;9.40;99.90;;;;;;4954849;29;20350;-78
2022/01/12 08:55:54;;;;;;;;;;;9.30;99.90;;;;;;4955034;28;19910;-78
2022/01/12 08:58:20;;;;;;;;;;;9.30;99.90;;;;;;4941283;29;19953;-78
2022/01/12 09:00:45;;;;;;;;;;;9.20;99.90;;;;;;4958703;29;20375;-78
2022/01/12 09:03:12;;;;;;;;;;;9.20;99.90;;;;;;4958512;29;19911;-78
2022/01/12 09:05:37;;;;;;;;;;;9.30;99.90;;;;;;4958483;29;20009;-78
2022/01/12 09:08:04;;;;;;;;;;;9.30;99.90;;;;;;4958383;29;20013;-78
2022/01/12 09:10:29;;;;;;;;;;;9.30;99.90;;;;;;4958338;29;20363;-78
2022/01/12 09:12:55;;;;;;;;;;;9.30;99.90;;;;;;4941059;29;20042;-79
2022/01/12 09:15:25;;;;;;;;;;;9.20;99.90;;;;;;4958794;29;20326;-78
2022/01/12 09:17:51;;;;;;;;;;;9.20;99.90;;;;;;4958240;29;19910;-78
2022/01/12 09:20:16;;;;;;;;;;;9.30;99.90;;;;;;4958191;29;19973;-78
2022/01/12 09:22:42;;;;;;;;;;;9.30;99.90;;;;;;4940904;29;20350;-79
2022/01/12 09:25:09;;;;;;;;;;;9.40;99.90;;;;;;4940855;29;19953;-78
2022/01/12 09:27:38;;;;;;;;;;;9.40;99.90;;;;;;4958007;29;19918;-78
2022/01/12 09:30:05;;;;;;;;;;;9.40;99.90;;;;;;4957952;29;19911;-78
2022/01/12 09:32:31;;;;;;;;;;;9.40;99.90;;;;;;4958292;29;19962;-78
2022/01/12 09:34:57;;;;;;;;;;;9.40;99.90;;;;;;4958050;29;20334;-78
2022/01/12 09:37:22;;;;;;;;;;;9.50;99.90;;;;;;4957970;29;19926;-79
2022/01/12 09:39:48;;;;;;;;;;;9.50;99.90;;;;;;4956645;29;19962;-78
2022/01/12 09:42:17;;;;;;;;;;;9.40;99.90;;;;;;4958155;29;19918;-78
2022/01/12 09:44:45;;;;;;;;;;;9.30;99.90;;;;;;4957987;29;19920;-78
2022/01/12 09:47:11;;;;;;;;;;;9.30;99.90;;;;;;4957748;29;19937;-78
2022/01/12 09:49:37;;;;;;;;;;;9.40;99.90;;;;;;4957664;29;20362;-78
2022/01/12 09:52:03;;;;;;;;;;;9.40;99.90;;;;;;4957553;29;20386;-78
2022/01/12 09:54:29;;;;;;;;;;;9.40;99.90;;;;;;4957471;29;19926;-78
2022/01/12 09:56:57;;;;;;;;;;;9.50;99.90;;;;;;4957536;29;20286;-78
2022/01/12 09:59:23;;;;;;;;;;;9.50;99.90;;;;;;4956153;29;19915;-78
2022/01/12 10:01:49;;;;;;;;;;;9.50;99.90;;;;;;4957618;29;19918;-78
2022/01/12 10:04:21;;;;;;;;;;;9.40;99.90;;;;;;4957693;29;19910;-78
2022/01/12 10:06:53;;;;;;;;;;;9.50;99.90;;;;;;4957362;29;19936;-78
2022/01/12 10:09:31;;;;;;;;;;;9.60;99.90;;;;;;4957266;28;19910;-78
2022/01/12 10:11:58;;;;;;;;;;;9.70;99.90;;;;;;4957437;29;19933;-78
2022/01/12 10:14:24;;;;;;;;;;;9.60;99.90;;;;;;4957916;29;19914;-78
2022/01/12 10:16:51;;;;;;;;;;;9.70;99.90;;;;;;4957253;29;19973;-78
2022/01/12 10:19:24;;;;;;;;;;;9.70;99.90;;;;;;4957043;29;19970;-78
2022/01/12 10:21:50;;;;;;;;;;;9.60;99.90;;;;;;4957320;29;19938;-78
2022/01/12 10:24:18;;;;;;;;;;;9.60;99.90;;;;;;4956990;29;19978;-78
2022/01/12 10:26:44;;;;;;;;;;;9.60;99.90;;;;;;4957065;29;19922;-78
2022/01/12 10:29:17;;;;;;;;;;;9.60;99.90;;;;;;4956939;29;19910;-78
2022/01/12 10:31:47;;;;;;;;;;;9.60;99.90;;;;;;4956862;29;20390;-78
2022/01/12 10:34:13;;;;;;;;;;;9.60;99.90;;;;;;4957054;29;19979;-78
2022/01/12 10:36:39;;;;;;;;;;;9.50;99.90;;;;;;4956805;29;19910;-78
2022/01/12 10:39:12;;;;;;;;;;;9.60;99.90;;;;;;4956953;29;20370;-78
2022/01/12 10:41:56;;;;;;;;;;;9.50;99.90;;;;;;4957063;29;19910;-78
2022/01/12 10:44:42;;;;;;;;;;;9.30;99.90;;;;;;4956749;29;19910;-78
2022/01/12 10:47:08;;;;;;;;;;;9.30;99.90;;;;;;4955810;28;19953;-78
2022/01/12 10:49:36;;;;;;;;;;;9.40;99.90;;;;;;4956643;29;19914;-78
2022/01/12 10:52:03;;;;;;;;;;;9.30;99.90;;;;;;4939649;29;20433;-78
2022/01/12 10:54:29;;;;;;;;;;;9.00;99.90;;;;;;4956486;29;19922;-78
2022/01/12 10:56:54;;;;;;;;;;;9.00;99.90;;;;;;4956522;29;19918;-78
2022/01/12 10:59:21;;;;;;;;;;;9.10;99.90;;;;;;4956459;29;20395;-78
2022/01/12 11:01:47;;;;;;;;;;;9.10;99.90;;;;;;4956401;29;19951;-78
2022/01/12 11:04:13;;;;;;;;;;;9.30;99.90;;;;;;4956550;29;19965;-78
2022/01/12 11:06:39;;;;;;;;;;;9.40;99.90;;;;;;4956265;29;19914;-78
2022/01/12 11:09:05;;;;;;;;;;;9.50;99.90;;;;;;4956427;29;19923;-78
2022/01/12 11:11:31;;;;;;;;;;;9.60;99.90;;;;;;4956244;29;20380;-78
2022/01/12 11:13:57;;;;;;;;;;;9.70;99.90;;;;;;4956157;29;19958;-78
2022/01/12 11:16:23;;;;;;;;;;;9.80;99.90;;;;;;4955485;29;20355;-78
2022/01/12 11:18:49;;;;;;;;;;;9.90;99.90;;;;;;4955870;28;19910;-78
2022/01/12 11:21:30;;;;;;;;;;;9.80;99.90;;;;;;4955935;29;19949;-78
2022/01/12 11:23:57;;;;;;;;;;;9.70;99.90;;;;;;4938511;29;20335;-78
2022/01/12 11:26:24;;;;;;;;;;;9.80;99.90;;;;;;4955988;29;19911;-78
2022/01/12 11:28:51;;;;;;;;;;;10.00;99.90;;;;;;4956178;29;19910;-78
2022/01/12 11:31:22;;;;;;;;;;;10.10;99.90;;;;;;4956238;29;20342;-78
2022/01/12 11:33:47;;;;;;;;;;;10.10;99.90;;;;;;4955940;29;19933;-78
2022/01/12 11:36:20;;;;;;;;;;;10.20;99.90;;;;;;4956228;29;20374;-78
2022/01/12 11:38:50;;;;;;;;;;;10.20;99.90;;;;;;4955877;29;19910;-78
2022/01/12 11:41:26;;;;;;;;;;;10.30;99.90;;;;;;4955789;29;20276;-79
2022/01/12 11:43:58;;;;;;;;;;;10.30;99.90;;;;;;4956042;29;19910;-79
2022/01/12 11:46:28;;;;;;;;;;;10.40;99.90;;;;;;4955814;29;20066;-78
2022/01/12 11:48:54;;;;;;;;;;;10.40;99.90;;;;;;4938494;29;19916;-78
2022/01/12 11:51:33;;;;;;;;;;;10.50;99.90;;;;;;4938444;29;19911;-78
2022/01/12 11:54:00;;;;;;;;;;;10.40;99.90;;;;;;4934851;29;20394;-78
2022/01/12 11:56:26;;;;;;;;;;;10.20;99.90;;;;;;4936562;29;20383;-78
2022/01/12 11:58:51;;;;;;;;;;;10.20;99.90;;;;;;4936423;29;19938;-78
2022/01/12 12:01:17;;;;;;;;;;;10.20;99.90;;;;;;4936463;29;19989;-78
2022/01/12 12:03:54;;;;;;;;;;;10.20;99.90;;;;;;4936423;29;19921;-79
2022/01/12 12:06:20;;;;;;;;;;;10.20;99.90;;;;;;4934853;29;20290;-78
2022/01/12 12:08:59;;;;;;;;;;;10.20;99.90;;;;;;4935078;29;19915;-78
2022/01/12 12:11:26;;;;;;;;;;;10.30;99.90;;;;;;4936635;29;19914;-78
2022/01/12 12:13:51;;;;;;;;;;;10.40;99.90;;;;;;4936335;29;19911;-78
2022/01/12 12:16:17;;;;;;;;;;;10.50;99.90;;;;;;4936853;29;19923;-78
2022/01/12 12:18:44;;;;;;;;;;;10.70;99.90;;;;;;4936470;29;19922;-78
2022/01/12 12:21:10;;;;;;;;;;;10.60;99.90;;;;;;4936233;29;20364;-78
2022/01/12 12:23:36;;;;;;;;;;;10.50;99.90;;;;;;4936257;29;19917;-78
2022/01/12 12:26:06;;;;;;;;;;;10.50;99.90;;;;;;4936262;29;20001;-79
2022/01/12 12:28:32;;;;;;;;;;;10.50;99.90;;;;;;4950787;29;20298;-78
2022/01/12 12:30:57;;;;;;;;;;;10.40;99.90;;;;;;4936565;29;19918;-78
2022/01/12 12:33:23;;;;;;;;;;;10.50;99.90;;;;;;4940112;29;20400;-78
2022/01/12 12:35:49;;;;;;;;;;;10.50;99.90;;;;;;4940011;29;19911;-78
2022/01/12 12:38:15;;;;;;;;;;;10.60;99.90;;;;;;4939903;29;19950;-78
2022/01/12 12:40:45;;;;;;;;;;;10.50;99.90;;;;;;4939856;29;19915;-79
2022/01/12 12:43:19;;;;;;;;;;;10.40;99.90;;;;;;4940158;29;20364;-78
2022/01/12 12:45:45;;;;;;;;;;;10.50;99.90;;;;;;4940003;29;19918;-78
2022/01/12 12:48:15;;;;;;;;;;;10.50;99.90;;;;;;4939678;29;19919;-79
2022/01/12 12:50:41;;;;;;;;;;;10.50;99.90;;;;;;4939932;29;19911;-79
2022/01/12 12:53:07;;;;;;;;;;;10.80;99.90;;;;;;4939749;29;19962;-79
2022/01/12 12:55:35;;;;;;;;;;;11.10;99.90;;;;;;4957123;29;19926;-79
2022/01/12 12:58:00;;;;;;;;;;;11.00;99.90;;;;;;4958803;29;20002;-78
2022/01/12 13:00:26;;;;;;;;;;;10.80;99.90;;;;;;4958718;29;19954;-78
2022/01/12 13:02:54;;;;;;;;;;;10.90;99.90;;;;;;4958502;29;19910;-78
2022/01/12 13:05:20;;;;;;;;;;;11.30;99.90;;;;;;4958837;29;19917;-79
2022/01/12 13:07:47;;;;;;;;;;;11.30;99.90;;;;;;4957188;29;19970;-79
2022/01/12 13:10:15;;;;;;;;;;;11.30;99.90;;;;;;4957272;29;20336;-79
2022/01/12 13:12:46;;;;;;;;;;;11.20;99.90;;;;;;4958538;29;19933;-78
2022/01/12 13:15:19;;;;;;;;;;;11.20;99.90;;;;;;4941813;29;19947;-78
2022/01/12 13:17:45;;;;;;;;;;;11.20;99.90;;;;;;4958344;29;19918;-79
2022/01/12 13:22:49;;;;;;;;;;;11.30;99.90;;;;;;4958312;29;20278;-79
2022/01/12 13:25:16;;;;;;;;;;;11.30;99.90;;;;;;4941004;29;19911;-79
2022/01/12 13:27:42;;;;;;;;;;;11.00;99.90;;;;;;4956845;29;19918;-78
2022/01/12 13:30:20;;;;;;;;;;;11.10;99.90;;;;;;4958142;29;19942;-78
2022/01/12 13:32:50;;;;;;;;;;;11.00;99.90;;;;;;4940689;29;19910;-79
2022/01/12 13:35:17;;;;;;;;;;;11.20;99.90;;;;;;4958082;29;19910;-78
2022/01/12 13:37:52;;;;;;;;;;;11.20;99.90;;;;;;4958310;29;20302;-78
2022/01/12 13:40:17;;;;;;;;;;;11.30;99.90;;;;;;4958005;29;19961;-78
2022/01/12 13:42:49;;;;;;;;;;;11.30;99.90;;;;;;4957778;28;19918;-78
2022/01/12 13:45:17;;;;;;;;;;;11.20;99.90;;;;;;4940722;29;19942;-78
2022/01/12 13:47:48;;;;;;;;;;;11.30;99.90;;;;;;4958000;29;19915;-78
2022/01/12 13:50:14;;;;;;;;;;;11.50;99.90;;;;;;4957918;29;19917;-79
2022/01/12 13:52:41;;;;;;;;;;;11.80;99.90;;;;;;4957816;29;20282;-79
2022/01/12 13:55:10;;;;;;;;;;;11.90;99.90;;;;;;4940222;29;19923;-79
2022/01/12 13:57:36;;;;;;;;;;;11.80;99.90;;;;;;4957671;29;19918;-78
2022/01/12 14:00:03;;;;;;;;;;;11.70;99.90;;;;;;4957576;29;19910;-78
2022/01/12 14:02:30;;;;;;;;;;;11.60;99.90;;;;;;4957587;29;19918;-78
2022/01/12 14:05:06;;;;;;;;;;;11.70;99.90;;;;;;4957801;29;19910;-79
2022/01/12 14:07:37;;;;;;;;;;;11.70;99.90;;;;;;4957601;29;19961;-79
2022/01/12 14:10:04;;;;;;;;;;;11.90;99.90;;;;;;4957499;29;19920;-79
2022/01/12 14:12:29;;;;;;;;;;;12.00;99.90;;;;;;4957365;29;19915;-79
2022/01/12 14:14:59;;;;;;;;;;;11.70;99.90;;;;;;4957938;29;19898;-79
2022/01/12 14:17:27;;;;;;;;;;;11.70;99.90;;;;;;4957655;29;19910;-79
2022/01/12 14:19:53;;;;;;;;;;;11.60;99.90;;;;;;4957254;29;19910;-78
2022/01/12 14:22:19;;;;;;;;;;;11.80;99.90;;;;;;4957328;29;19930;-79
2022/01/12 14:25:01;;;;;;;;;;;11.90;99.90;;;;;;4957173;29;19910;-79
2022/01/12 14:27:46;;;;;;;;;;;12.10;99.90;;;;;;4957240;29;20363;-78
2022/01/12 14:30:12;;;;;;;;;;;12.10;99.90;;;;;;4957157;29;19910;-78
2022/01/12 14:32:38;;;;;;;;;;;11.80;99.90;;;;;;4957073;29;20422;-78
2022/01/12 14:35:05;;;;;;;;;;;11.60;99.90;;;;;;4939696;29;19977;-79
2022/01/12 14:37:31;;;;;;;;;;;11.70;99.90;;;;;;4956925;29;19918;-78
2022/01/12 14:39:56;;;;;;;;;;;11.60;99.90;;;;;;4957035;29;19914;-79
2022/01/12 14:42:22;;;;;;;;;;;11.50;99.90;;;;;;4956868;29;19910;-79
2022/01/12 14:44:48;;;;;;;;;;;11.50;99.90;;;;;;4956826;29;20002;-79
2022/01/12 14:47:13;;;;;;;;;;;11.50;99.90;;;;;;4956644;29;19952;-79
2022/01/12 14:49:39;;;;;;;;;;;11.80;99.90;;;;;;4956732;29;20004;-79
2022/01/12 14:52:05;;;;;;;;;;;12.20;99.90;;;;;;4956871;29;19911;-79
2022/01/12 14:54:30;;;;;;;;;;;12.20;99.90;;;;;;4955763;28;19922;-79
2022/01/12 14:56:56;;;;;;;;;;;12.60;99.90;;;;;;4956580;29;19914;-79
2022/01/12 14:59:22;;;;;;;;;;;12.80;99.90;;;;;;4956514;29;19911;-79
2022/01/12 15:01:47;;;;;;;;;;;12.90;99.90;;;;;;4956638;29;20318;-79
2022/01/12 15:04:13;;;;;;;;;;;12.70;99.90;;;;;;4956643;29;20502;-79
2022/01/12 15:06:38;;;;;;;;;;;12.50;99.90;;;;;;4956906;29;19965;-79
2022/01/12 15:09:04;;;;;;;;;;;12.40;99.90;;;;;;4939153;29;20385;-79
2022/01/12 15:11:32;;;;;;;;;;;12.20;99.90;;;;;;4956409;29;20003;-79
2022/01/12 15:14:10;;;;;;;;;;;12.30;99.90;;;;;;4958911;28;20000;-78
2022/01/12 15:16:36;;;;;;;;;;;12.30;99.90;;;;;;4975672;28;19933;-78
2022/01/12 15:19:03;;;;;;;;;;;12.30;99.90;;;;;;4975011;28;20370;-79
2022/01/12 15:21:30;;;;;;;;;;;12.10;99.90;;;;;;4974873;28;19910;-79
2022/01/12 15:23:56;;;;;;;;;;;12.10;99.90;;;;;;4974695;28;20009;-79
2022/01/12 15:26:21;;;;;;;;;;;12.00;99.90;;;;;;4974853;28;20014;-78
2022/01/12 15:28:47;;;;;;;;;;;12.10;99.90;;;;;;4972093;28;19911;-79
2022/01/12 15:31:13;;;;;;;;;;;12.10;99.90;;;;;;4974678;28;19921;-79
2022/01/12 15:33:38;;;;;;;;;;;12.20;99.90;;;;;;4974624;28;19910;-79
2022/01/12 15:36:05;;;;;;;;;;;12.30;99.90;;;;;;4974756;28;20293;-79
2022/01/12 15:38:31;;;;;;;;;;;12.30;99.90;;;;;;4974825;28;20281;-79
2022/01/12 15:40:57;;;;;;;;;;;12.30;99.90;;;;;;4974893;28;19960;-79